sensor_id;sensor_type;location;lat;lon;timestamp;pressure;altitude;pressure_sealevel;temperature;humidity
17311;BME280;8773;43.300;0.394;2023-08-06T00:00:41;100266.53;;;18.89;74.71
17311;BME280;8773;43.300;0.394;2023-08-06T00:03:09;100256.50;;;18.90;74.95
17311;BME280;8773;43.300;0.394;2023-08-06T00:05:36;100263.47;;;18.99;74.70
17311;BME280;8773;43.300;0.394;2023-08-06T00:08:04;100261.69;;;19.13;74.02
17311;BME280;8773;43.300;0.394;2023-08-06T00:10:31;100263.75;;;19.11;74.50
17311;BME280;8773;43.300;0.394;2023-08-06T00:12:59;100264.94;;;19.01;74.77
17311;BME280;8773;43.300;0.394;2023-08-06T00:15:26;100264.28;;;18.99;74.30
17311;BME280;8773;43.300;0.394;2023-08-06T00:17:55;100271.09;;;18.89;75.00
17311;BME280;8773;43.300;0.394;2023-08-06T00:20:22;100268.13;;;18.56;76.13
17311;BME280;8773;43.300;0.394;2023-08-06T00:22:50;100275.47;;;18.62;75.70
17311;BME280;8773;43.300;0.394;2023-08-06T00:25:17;100273.59;;;18.62;75.83
17311;BME280;8773;43.300;0.394;2023-08-06T00:27:45;100266.53;;;18.47;76.34
17311;BME280;8773;43.300;0.394;2023-08-06T00:30:12;100269.84;;;18.42;77.02
17311;BME280;8773;43.300;0.394;2023-08-06T00:32:40;100277.91;;;18.57;76.08
17311;BME280;8773;43.300;0.394;2023-08-06T00:35:09;100278.81;;;18.43;77.00
17311;BME280;8773;43.300;0.394;2023-08-06T00:37:37;100278.41;;;18.67;75.79
17311;BME280;8773;43.300;0.394;2023-08-06T00:40:05;100270.56;;;18.72;75.05
17311;BME280;8773;43.300;0.394;2023-08-06T00:42:33;100270.38;;;18.52;75.89
17311;BME280;8773;43.300;0.394;2023-08-06T00:45:00;100275.91;;;18.65;75.24
17311;BME280;8773;43.300;0.394;2023-08-06T00:47:28;100277.91;;;18.57;76.10
17311;BME280;8773;43.300;0.394;2023-08-06T00:49:55;100275.66;;;18.60;75.31
17311;BME280;8773;43.300;0.394;2023-08-06T00:52:24;100273.06;;;18.52;75.43
17311;BME280;8773;43.300;0.394;2023-08-06T00:54:52;100276.16;;;18.49;75.18
17311;BME280;8773;43.300;0.394;2023-08-06T00:57:20;100281.13;;;18.46;75.07
17311;BME280;8773;43.300;0.394;2023-08-06T00:59:49;100276.22;;;18.56;74.83
17311;BME280;8773;43.300;0.394;2023-08-06T01:02:17;100279.31;;;18.53;74.89
17311;BME280;8773;43.300;0.394;2023-08-06T01:04:44;100277.72;;;18.37;75.36
17311;BME280;8773;43.300;0.394;2023-08-06T01:07:18;100285.88;;;18.44;75.30
17311;BME280;8773;43.300;0.394;2023-08-06T01:09:59;100290.78;;;18.55;74.69
17311;BME280;8773;43.300;0.394;2023-08-06T01:12:41;100301.66;;;18.40;75.41
17311;BME280;8773;43.300;0.394;2023-08-06T01:15:15;100298.09;;;18.18;76.21
17311;BME280;8773;43.300;0.394;2023-08-06T01:17:45;100293.72;;;18.17;76.18
17311;BME280;8773;43.300;0.394;2023-08-06T01:20:12;100299.97;;;18.18;75.68
17311;BME280;8773;43.300;0.394;2023-08-06T01:22:41;100300.19;;;18.38;75.34
17311;BME280;8773;43.300;0.394;2023-08-06T01:25:09;100291.03;;;18.39;75.07
17311;BME280;8773;43.300;0.394;2023-08-06T01:27:43;100296.28;;;18.47;74.61
17311;BME280;8773;43.300;0.394;2023-08-06T01:30:13;100289.94;;;18.54;73.93
17311;BME280;8773;43.300;0.394;2023-08-06T01:32:46;100291.38;;;18.50;74.11
17311;BME280;8773;43.300;0.394;2023-08-06T01:35:17;100287.88;;;18.35;74.38
17311;BME280;8773;43.300;0.394;2023-08-06T01:37:48;100286.25;;;18.19;75.23
17311;BME280;8773;43.300;0.394;2023-08-06T01:40:15;100294.09;;;18.14;75.52
17311;BME280;8773;43.300;0.394;2023-08-06T01:42:43;100289.22;;;18.24;74.76
17311;BME280;8773;43.300;0.394;2023-08-06T01:45:10;100292.69;;;18.18;74.77
17311;BME280;8773;43.300;0.394;2023-08-06T01:47:38;100292.81;;;18.10;75.00
17311;BME280;8773;43.300;0.394;2023-08-06T01:50:06;100291.00;;;17.96;75.09
17311;BME280;8773;43.300;0.394;2023-08-06T01:52:33;100283.72;;;17.96;75.23
17311;BME280;8773;43.300;0.394;2023-08-06T01:55:02;100286.25;;;17.98;74.78
17311;BME280;8773;43.300;0.394;2023-08-06T01:57:29;100288.94;;;17.98;74.50
17311;BME280;8773;43.300;0.394;2023-08-06T01:59:57;100286.53;;;17.88;74.92
17311;BME280;8773;43.300;0.394;2023-08-06T02:02:24;100280.75;;;17.91;74.82
17311;BME280;8773;43.300;0.394;2023-08-06T02:04:52;100284.69;;;17.89;74.72
17311;BME280;8773;43.300;0.394;2023-08-06T02:07:19;100283.00;;;17.88;74.68
17311;BME280;8773;43.300;0.394;2023-08-06T02:09:47;100283.00;;;17.88;74.58
17311;BME280;8773;43.300;0.394;2023-08-06T02:12:15;100294.00;;;17.86;74.66
17311;BME280;8773;43.300;0.394;2023-08-06T02:14:43;100300.81;;;17.82;74.84
17311;BME280;8773;43.300;0.394;2023-08-06T02:17:10;100293.72;;;17.81;75.05
17311;BME280;8773;43.300;0.394;2023-08-06T02:19:38;100294.94;;;17.79;75.45
17311;BME280;8773;43.300;0.394;2023-08-06T02:22:05;100294.00;;;17.72;75.90
17311;BME280;8773;43.300;0.394;2023-08-06T02:24:32;100286.66;;;17.80;75.58
17311;BME280;8773;43.300;0.394;2023-08-06T02:27:03;100289.16;;;17.82;75.25
17311;BME280;8773;43.300;0.394;2023-08-06T02:29:32;100288.41;;;17.88;74.47
17311;BME280;8773;43.300;0.394;2023-08-06T02:31:59;100282.28;;;17.79;74.95
17311;BME280;8773;43.300;0.394;2023-08-06T02:34:26;100281.25;;;17.80;74.63
17311;BME280;8773;43.300;0.394;2023-08-06T02:36:54;100285.06;;;17.71;75.19
17311;BME280;8773;43.300;0.394;2023-08-06T02:39:21;100273.81;;;17.67;74.93
17311;BME280;8773;43.300;0.394;2023-08-06T02:41:49;100277.41;;;17.60;74.94
17311;BME280;8773;43.300;0.394;2023-08-06T02:44:16;100280.16;;;17.45;75.36
17311;BME280;8773;43.300;0.394;2023-08-06T02:46:45;100294.03;;;17.42;75.61
17311;BME280;8773;43.300;0.394;2023-08-06T02:49:13;100283.50;;;17.32;75.62
17311;BME280;8773;43.300;0.394;2023-08-06T02:51:40;100287.31;;;17.38;75.52
17311;BME280;8773;43.300;0.394;2023-08-06T02:54:08;100288.34;;;17.37;75.42
17311;BME280;8773;43.300;0.394;2023-08-06T02:56:35;100284.53;;;17.46;75.28
17311;BME280;8773;43.300;0.394;2023-08-06T02:59:02;100284.91;;;17.43;75.63
17311;BME280;8773;43.300;0.394;2023-08-06T03:01:30;100284.53;;;17.46;75.40
17311;BME280;8773;43.300;0.394;2023-08-06T03:03:59;100271.50;;;17.35;75.83
17311;BME280;8773;43.300;0.394;2023-08-06T03:06:26;100267.78;;;17.36;75.68
17311;BME280;8773;43.300;0.394;2023-08-06T03:08:54;100273.44;;;17.41;75.38
17311;BME280;8773;43.300;0.394;2023-08-06T03:11:21;100262.00;;;17.39;75.70
17311;BME280;8773;43.300;0.394;2023-08-06T03:13:48;100270.47;;;17.51;75.00
17311;BME280;8773;43.300;0.394;2023-08-06T03:16:16;100262.09;;;17.46;74.99
17311;BME280;8773;43.300;0.394;2023-08-06T03:18:43;100264.22;;;17.50;74.95
17311;BME280;8773;43.300;0.394;2023-08-06T03:21:12;100269.63;;;17.50;74.97
17311;BME280;8773;43.300;0.394;2023-08-06T03:23:39;100270.19;;;17.31;75.93
17311;BME280;8773;43.300;0.394;2023-08-06T03:26:07;100270.56;;;17.28;75.80
17311;BME280;8773;43.300;0.394;2023-08-06T03:28:34;100286.00;;;17.04;76.82
17311;BME280;8773;43.300;0.394;2023-08-06T03:31:02;100278.47;;;17.00;77.43
17311;BME280;8773;43.300;0.394;2023-08-06T03:33:30;100274.00;;;16.92;77.72
17311;BME280;8773;43.300;0.394;2023-08-06T03:35:58;100265.81;;;17.00;77.58
17311;BME280;8773;43.300;0.394;2023-08-06T03:38:26;100276.97;;;16.97;77.65
17311;BME280;8773;43.300;0.394;2023-08-06T03:40:54;100275.50;;;17.10;77.10
17311;BME280;8773;43.300;0.394;2023-08-06T03:43:21;100284.91;;;17.14;76.77
17311;BME280;8773;43.300;0.394;2023-08-06T03:45:49;100284.16;;;17.05;77.02
17311;BME280;8773;43.300;0.394;2023-08-06T03:48:16;100286.19;;;17.03;77.53
17311;BME280;8773;43.300;0.394;2023-08-06T03:50:43;100281.72;;;17.25;76.80
17311;BME280;8773;43.300;0.394;2023-08-06T03:53:11;100276.53;;;17.38;76.13
17311;BME280;8773;43.300;0.394;2023-08-06T03:55:40;100276.63;;;17.45;76.24
17311;BME280;8773;43.300;0.394;2023-08-06T03:58:07;100272.72;;;17.47;75.84
17311;BME280;8773;43.300;0.394;2023-08-06T04:00:34;100265.91;;;17.51;75.40
17311;BME280;8773;43.300;0.394;2023-08-06T04:03:02;100277.72;;;17.50;75.28
17311;BME280;8773;43.300;0.394;2023-08-06T04:05:31;100275.03;;;17.50;75.49
17311;BME280;8773;43.300;0.394;2023-08-06T04:07:58;100274.09;;;17.58;75.29
17311;BME280;8773;43.300;0.394;2023-08-06T04:10:26;100271.22;;;17.59;75.02
17311;BME280;8773;43.300;0.394;2023-08-06T04:12:54;100269.53;;;17.58;74.96
17311;BME280;8773;43.300;0.394;2023-08-06T04:15:22;100267.22;;;17.55;75.00
17311;BME280;8773;43.300;0.394;2023-08-06T04:17:49;100271.69;;;17.48;74.93
17311;BME280;8773;43.300;0.394;2023-08-06T04:20:17;100274.00;;;17.51;74.94
17311;BME280;8773;43.300;0.394;2023-08-06T04:22:44;100275.97;;;17.28;75.10
17311;BME280;8773;43.300;0.394;2023-08-06T04:25:11;100278.47;;;17.29;75.27
17311;BME280;8773;43.300;0.394;2023-08-06T04:27:39;100273.25;;;17.28;75.86
17311;BME280;8773;43.300;0.394;2023-08-06T04:30:09;100283.13;;;17.21;76.28
17311;BME280;8773;43.300;0.394;2023-08-06T04:32:37;100286.84;;;17.34;75.85
17311;BME280;8773;43.300;0.394;2023-08-06T04:35:05;100285.09;;;17.42;75.74
17311;BME280;8773;43.300;0.394;2023-08-06T04:37:32;100291.50;;;17.41;76.03
17311;BME280;8773;43.300;0.394;2023-08-06T04:40:00;100272.97;;;17.52;75.44
17311;BME280;8773;43.300;0.394;2023-08-06T04:42:27;100283.41;;;17.55;75.26
17311;BME280;8773;43.300;0.394;2023-08-06T04:44:54;100287.59;;;17.43;75.90
17311;BME280;8773;43.300;0.394;2023-08-06T04:47:23;100292.72;;;17.67;75.16
17311;BME280;8773;43.300;0.394;2023-08-06T04:49:51;100289.38;;;17.65;75.01
17311;BME280;8773;43.300;0.394;2023-08-06T04:52:18;100286.09;;;17.85;74.66
17311;BME280;8773;43.300;0.394;2023-08-06T04:54:45;100291.75;;;17.90;74.00
17311;BME280;8773;43.300;0.394;2023-08-06T04:57:13;100296.44;;;17.81;74.22
17311;BME280;8773;43.300;0.394;2023-08-06T04:59:40;100291.75;;;17.90;74.11
17311;BME280;8773;43.300;0.394;2023-08-06T05:02:08;100288.75;;;17.99;73.79
17311;BME280;8773;43.300;0.394;2023-08-06T05:04:36;100293.56;;;18.04;73.39
17311;BME280;8773;43.300;0.394;2023-08-06T05:07:05;100299.09;;;17.96;73.49
17311;BME280;8773;43.300;0.394;2023-08-06T05:09:32;100301.38;;;17.78;73.78
17311;BME280;8773;43.300;0.394;2023-08-06T05:12:01;100294.47;;;17.90;73.76
17311;BME280;8773;43.300;0.394;2023-08-06T05:14:28;100298.47;;;17.94;73.71
17311;BME280;8773;43.300;0.394;2023-08-06T05:16:56;100293.97;;;18.01;73.51
17311;BME280;8773;43.300;0.394;2023-08-06T05:19:23;100299.13;;;18.17;72.71
17311;BME280;8773;43.300;0.394;2023-08-06T05:21:52;100297.53;;;18.23;72.37
17311;BME280;8773;43.300;0.394;2023-08-06T05:24:20;100301.72;;;18.25;71.89
17311;BME280;8773;43.300;0.394;2023-08-06T05:26:49;100307.19;;;18.32;71.02
17311;BME280;8773;43.300;0.394;2023-08-06T05:29:16;100312.47;;;18.40;70.80
17311;BME280;8773;43.300;0.394;2023-08-06T05:31:44;100316.97;;;18.33;70.77
17311;BME280;8773;43.300;0.394;2023-08-06T05:34:11;100323.78;;;18.29;70.93
17311;BME280;8773;43.300;0.394;2023-08-06T05:36:38;100323.63;;;18.16;70.87
17311;BME280;8773;43.300;0.394;2023-08-06T05:39:07;100327.16;;;17.95;71.78
17311;BME280;8773;43.300;0.394;2023-08-06T05:41:35;100331.25;;;17.91;72.06
17311;BME280;8773;43.300;0.394;2023-08-06T05:44:02;100327.81;;;18.18;71.90
17311;BME280;8773;43.300;0.394;2023-08-06T05:46:31;100331.06;;;18.28;70.76
17311;BME280;8773;43.300;0.394;2023-08-06T05:48:58;100325.13;;;18.18;71.63
17311;BME280;8773;43.300;0.394;2023-08-06T05:51:26;100331.19;;;18.20;71.44
17311;BME280;8773;43.300;0.394;2023-08-06T05:53:54;100325.28;;;18.53;70.23
17311;BME280;8773;43.300;0.394;2023-08-06T05:56:23;100323.31;;;18.83;68.97
17311;BME280;8773;43.300;0.394;2023-08-06T05:58:50;100343.47;;;18.80;68.80
17311;BME280;8773;43.300;0.394;2023-08-06T06:01:17;100348.88;;;18.80;68.88
17311;BME280;8773;43.300;0.394;2023-08-06T06:03:45;100350.56;;;18.81;68.66
17311;BME280;8773;43.300;0.394;2023-08-06T06:06:12;100344.00;;;18.97;68.44
17311;BME280;8773;43.300;0.394;2023-08-06T06:08:43;100349.13;;;18.85;68.08
17311;BME280;8773;43.300;0.394;2023-08-06T06:11:11;100343.63;;;19.00;68.09
17311;BME280;8773;43.300;0.394;2023-08-06T06:13:40;100351.44;;;18.88;68.32
17311;BME280;8773;43.300;0.394;2023-08-06T06:16:07;100357.25;;;18.85;68.71
17311;BME280;8773;43.300;0.394;2023-08-06T06:18:35;100360.16;;;18.84;68.50
17311;BME280;8773;43.300;0.394;2023-08-06T06:21:03;100368.41;;;19.25;67.44
17311;BME280;8773;43.300;0.394;2023-08-06T06:23:30;100358.22;;;19.06;68.02
17311;BME280;8773;43.300;0.394;2023-08-06T06:25:57;100368.78;;;19.22;68.00
17311;BME280;8773;43.300;0.394;2023-08-06T06:28:25;100365.53;;;19.33;67.51
17311;BME280;8773;43.300;0.394;2023-08-06T06:30:53;100368.59;;;19.51;66.01
17311;BME280;8773;43.300;0.394;2023-08-06T06:33:27;100361.03;;;19.81;65.97
17311;BME280;8773;43.300;0.394;2023-08-06T06:35:54;100369.91;;;20.03;64.92
17311;BME280;8773;43.300;0.394;2023-08-06T06:38:21;100375.91;;;19.92;64.96
17311;BME280;8773;43.300;0.394;2023-08-06T06:40:54;100372.91;;;19.80;65.26
17311;BME280;8773;43.300;0.394;2023-08-06T06:43:21;100374.34;;;19.76;65.27
17311;BME280;8773;43.300;0.394;2023-08-06T06:45:53;100376.66;;;20.14;64.93
17311;BME280;8773;43.300;0.394;2023-08-06T06:48:23;100368.47;;;20.61;63.04
17311;BME280;8773;43.300;0.394;2023-08-06T06:50:50;100383.50;;;20.77;61.50
17311;BME280;8773;43.300;0.394;2023-08-06T06:53:17;100380.63;;;20.98;61.94
17311;BME280;8773;43.300;0.394;2023-08-06T06:55:45;100375.19;;;21.38;61.86
17311;BME280;8773;43.300;0.394;2023-08-06T06:58:13;100370.81;;;21.24;59.97
17311;BME280;8773;43.300;0.394;2023-08-06T07:00:40;100388.34;;;21.35;60.16
17311;BME280;8773;43.300;0.394;2023-08-06T07:03:09;100389.81;;;21.37;59.84
17311;BME280;8773;43.300;0.394;2023-08-06T07:05:36;100397.75;;;21.19;59.75
17311;BME280;8773;43.300;0.394;2023-08-06T07:08:04;100406.34;;;21.03;59.68
17311;BME280;8773;43.300;0.394;2023-08-06T07:10:31;100399.84;;;21.10;60.12
17311;BME280;8773;43.300;0.394;2023-08-06T07:12:59;100401.94;;;21.08;59.63
17311;BME280;8773;43.300;0.394;2023-08-06T07:15:26;100403.00;;;21.01;59.70
17311;BME280;8773;43.300;0.394;2023-08-06T07:17:53;100412.06;;;20.53;60.96
17311;BME280;8773;43.300;0.394;2023-08-06T07:20:22;100409.72;;;20.44;60.39
17311;BME280;8773;43.300;0.394;2023-08-06T07:22:50;100409.19;;;20.81;60.45
17311;BME280;8773;43.300;0.394;2023-08-06T07:25:17;100383.34;;;21.18;59.32
17311;BME280;8773;43.300;0.394;2023-08-06T07:27:44;100405.03;;;21.51;58.69
17311;BME280;8773;43.300;0.394;2023-08-06T07:30:12;100410.06;;;21.68;57.81
17311;BME280;8773;43.300;0.394;2023-08-06T07:32:39;100407.81;;;22.22;57.22
17311;BME280;8773;43.300;0.394;2023-08-06T07:35:08;100407.75;;;23.12;55.10
17311;BME280;8773;43.300;0.394;2023-08-06T07:37:37;100397.06;;;23.35;53.21
17311;BME280;8773;43.300;0.394;2023-08-06T07:40:05;100411.16;;;23.01;52.87
17311;BME280;8773;43.300;0.394;2023-08-06T07:42:32;100406.59;;;22.63;51.75
17311;BME280;8773;43.300;0.394;2023-08-06T07:45:00;100404.75;;;22.57;52.41
17311;BME280;8773;43.300;0.394;2023-08-06T07:47:27;100403.69;;;22.58;53.95
17311;BME280;8773;43.300;0.394;2023-08-06T07:49:54;100402.56;;;22.72;52.66
17311;BME280;8773;43.300;0.394;2023-08-06T07:52:22;100397.13;;;22.72;52.86
17311;BME280;8773;43.300;0.394;2023-08-06T07:54:50;100399.19;;;22.77;52.94
17311;BME280;8773;43.300;0.394;2023-08-06T07:57:18;100393.78;;;22.70;53.36
17311;BME280;8773;43.300;0.394;2023-08-06T07:59:45;100393.31;;;23.54;51.80
17311;BME280;8773;43.300;0.394;2023-08-06T08:02:13;100392.50;;;24.27;49.23
17311;BME280;8773;43.300;0.394;2023-08-06T08:04:40;100396.72;;;23.68;49.29
17311;BME280;8773;43.300;0.394;2023-08-06T08:07:09;100390.38;;;23.31;50.63
17311;BME280;8773;43.300;0.394;2023-08-06T08:09:37;100394.69;;;23.20;50.42
17311;BME280;8773;43.300;0.394;2023-08-06T08:12:06;100393.13;;;23.00;50.05
17311;BME280;8773;43.300;0.394;2023-08-06T08:14:33;100396.28;;;23.28;50.48
17311;BME280;8773;43.300;0.394;2023-08-06T08:17:01;100395.66;;;23.51;50.84
17311;BME280;8773;43.300;0.394;2023-08-06T08:19:28;100392.00;;;24.00;49.95
17311;BME280;8773;43.300;0.394;2023-08-06T08:21:56;100386.94;;;24.04;49.35
17311;BME280;8773;43.300;0.394;2023-08-06T08:24:24;100380.88;;;23.83;48.36
17311;BME280;8773;43.300;0.394;2023-08-06T08:26:51;100391.66;;;23.28;49.99
17311;BME280;8773;43.300;0.394;2023-08-06T08:29:20;100389.22;;;23.45;49.56
17311;BME280;8773;43.300;0.394;2023-08-06T08:31:48;100393.47;;;23.16;51.25
17311;BME280;8773;43.300;0.394;2023-08-06T08:34:15;100391.44;;;23.55;49.53
17311;BME280;8773;43.300;0.394;2023-08-06T08:36:43;100387.38;;;23.39;50.12
17311;BME280;8773;43.300;0.394;2023-08-06T08:39:11;100387.56;;;23.19;49.20
17311;BME280;8773;43.300;0.394;2023-08-06T08:41:39;100399.91;;;23.22;49.42
17311;BME280;8773;43.300;0.394;2023-08-06T08:44:08;100393.56;;;22.96;49.02
17311;BME280;8773;43.300;0.394;2023-08-06T08:46:38;100389.88;;;23.41;48.48
17311;BME280;8773;43.300;0.394;2023-08-06T08:49:07;100388.06;;;23.10;48.49
17311;BME280;8773;43.300;0.394;2023-08-06T08:51:35;100384.72;;;22.38;50.18
17311;BME280;8773;43.300;0.394;2023-08-06T08:54:03;100380.84;;;22.59;50.75
17311;BME280;8773;43.300;0.394;2023-08-06T08:56:31;100380.19;;;22.95;50.63
17311;BME280;8773;43.300;0.394;2023-08-06T08:58:59;100377.19;;;23.03;49.86
17311;BME280;8773;43.300;0.394;2023-08-06T09:01:27;100381.78;;;23.09;48.67
17311;BME280;8773;43.300;0.394;2023-08-06T09:03:57;100344.03;;;22.56;50.20
17311;BME280;8773;43.300;0.394;2023-08-06T09:06:27;100370.50;;;23.06;49.74
17311;BME280;8773;43.300;0.394;2023-08-06T09:09:01;100381.41;;;23.06;50.04
17311;BME280;8773;43.300;0.394;2023-08-06T09:11:37;100367.75;;;23.92;48.84
17311;BME280;8773;43.300;0.394;2023-08-06T09:14:07;100369.50;;;24.53;48.03
17311;BME280;8773;43.300;0.394;2023-08-06T09:16:34;100378.06;;;24.08;46.28
17311;BME280;8773;43.300;0.394;2023-08-06T09:19:08;100380.78;;;22.97;48.25
17311;BME280;8773;43.300;0.394;2023-08-06T09:21:39;100375.94;;;22.74;49.75
17311;BME280;8773;43.300;0.394;2023-08-06T09:24:08;100382.53;;;22.15;50.96
17311;BME280;8773;43.300;0.394;2023-08-06T09:26:36;100399.41;;;21.73;52.67
17311;BME280;8773;43.300;0.394;2023-08-06T09:29:05;100387.06;;;21.57;53.09
17311;BME280;8773;43.300;0.394;2023-08-06T09:31:33;100387.47;;;21.74;52.61
17311;BME280;8773;43.300;0.394;2023-08-06T09:34:01;100391.50;;;22.22;51.79
17311;BME280;8773;43.300;0.394;2023-08-06T09:36:30;100385.47;;;22.07;48.67
17311;BME280;8773;43.300;0.394;2023-08-06T09:38:57;100397.56;;;22.18;48.16
17311;BME280;8773;43.300;0.394;2023-08-06T09:41:27;100387.66;;;22.37;48.64
17311;BME280;8773;43.300;0.394;2023-08-06T09:43:54;100387.22;;;22.40;47.18
17311;BME280;8773;43.300;0.394;2023-08-06T09:46:22;100384.69;;;22.45;48.94
17311;BME280;8773;43.300;0.394;2023-08-06T09:48:50;100383.94;;;22.69;46.62
17311;BME280;8773;43.300;0.394;2023-08-06T09:51:17;100391.81;;;22.46;47.33
17311;BME280;8773;43.300;0.394;2023-08-06T09:53:47;100389.47;;;21.98;48.81
17311;BME280;8773;43.300;0.394;2023-08-06T09:56:15;100377.88;;;22.67;47.61
17311;BME280;8773;43.300;0.394;2023-08-06T09:58:45;100381.72;;;23.16;44.06
17311;BME280;8773;43.300;0.394;2023-08-06T10:01:16;100392.94;;;23.26;44.70
17311;BME280;8773;43.300;0.394;2023-08-06T10:03:43;100385.91;;;23.61;44.06
17311;BME280;8773;43.300;0.394;2023-08-06T10:06:11;100398.22;;;22.89;46.14
17311;BME280;8773;43.300;0.394;2023-08-06T10:08:38;100397.44;;;22.51;44.75
17311;BME280;8773;43.300;0.394;2023-08-06T10:11:07;100405.19;;;22.47;44.23
17311;BME280;8773;43.300;0.394;2023-08-06T10:13:36;100398.00;;;22.66;44.50
17311;BME280;8773;43.300;0.394;2023-08-06T10:16:04;100394.34;;;22.41;43.68
17311;BME280;8773;43.300;0.394;2023-08-06T10:18:35;100399.34;;;22.82;41.79
17311;BME280;8773;43.300;0.394;2023-08-06T10:21:07;100402.81;;;22.95;43.64
17311;BME280;8773;43.300;0.394;2023-08-06T10:23:35;100404.56;;;22.83;42.57
17311;BME280;8773;43.300;0.394;2023-08-06T10:26:03;100386.88;;;22.68;43.66
17311;BME280;8773;43.300;0.394;2023-08-06T10:28:39;100384.94;;;23.06;42.91
17311;BME280;8773;43.300;0.394;2023-08-06T10:31:06;100381.72;;;23.16;42.96
17311;BME280;8773;43.300;0.394;2023-08-06T10:33:41;100376.94;;;23.36;41.62
17311;BME280;8773;43.300;0.394;2023-08-06T10:36:09;100399.66;;;23.48;42.57
17311;BME280;8773;43.300;0.394;2023-08-06T10:38:44;100393.09;;;23.31;41.41
17311;BME280;8773;43.300;0.394;2023-08-06T10:41:23;100395.97;;;23.18;42.17
17311;BME280;8773;43.300;0.394;2023-08-06T10:44:05;100389.38;;;23.50;42.73
17311;BME280;8773;43.300;0.394;2023-08-06T10:46:33;100384.66;;;23.39;42.52
17311;BME280;8773;43.300;0.394;2023-08-06T10:49:00;100386.47;;;22.95;42.69
17311;BME280;8773;43.300;0.394;2023-08-06T10:51:28;100381.13;;;23.14;43.50
17311;BME280;8773;43.300;0.394;2023-08-06T10:53:56;100376.88;;;22.86;44.12
17311;BME280;8773;43.300;0.394;2023-08-06T10:56:24;100383.63;;;23.15;42.03
17311;BME280;8773;43.300;0.394;2023-08-06T10:58:54;100376.75;;;23.31;42.73
17311;BME280;8773;43.300;0.394;2023-08-06T11:01:23;100369.69;;;23.48;41.22
17311;BME280;8773;43.300;0.394;2023-08-06T11:03:51;100380.25;;;23.38;41.76
17311;BME280;8773;43.300;0.394;2023-08-06T11:06:19;100375.63;;;23.20;43.56
17311;BME280;8773;43.300;0.394;2023-08-06T11:08:48;100370.91;;;23.52;43.65
17311;BME280;8773;43.300;0.394;2023-08-06T11:11:16;100366.50;;;23.51;41.88
17311;BME280;8773;43.300;0.394;2023-08-06T11:13:45;100366.84;;;23.37;41.64
17311;BME280;8773;43.300;0.394;2023-08-06T11:16:14;100364.84;;;23.07;40.15
17311;BME280;8773;43.300;0.394;2023-08-06T11:18:43;100357.28;;;23.27;39.93
17311;BME280;8773;43.300;0.394;2023-08-06T11:21:10;100354.22;;;23.42;40.05
17311;BME280;8773;43.300;0.394;2023-08-06T11:23:39;100357.28;;;23.09;39.08
17311;BME280;8773;43.300;0.394;2023-08-06T11:26:08;100362.25;;;22.56;40.45
17311;BME280;8773;43.300;0.394;2023-08-06T11:28:36;100363.78;;;23.02;42.48
17311;BME280;8773;43.300;0.394;2023-08-06T11:31:03;100359.44;;;22.69;39.81
17311;BME280;8773;43.300;0.394;2023-08-06T11:33:31;100358.88;;;22.85;41.29
17311;BME280;8773;43.300;0.394;2023-08-06T11:36:01;100352.91;;;23.02;40.45
17311;BME280;8773;43.300;0.394;2023-08-06T11:38:29;100346.22;;;22.97;40.68
17311;BME280;8773;43.300;0.394;2023-08-06T11:40:56;100346.91;;;22.61;41.58
17311;BME280;8773;43.300;0.394;2023-08-06T11:43:23;100347.31;;;22.27;43.07
17311;BME280;8773;43.300;0.394;2023-08-06T11:45:51;100352.91;;;22.39;42.55
17311;BME280;8773;43.300;0.394;2023-08-06T11:48:18;100338.75;;;22.23;41.76
17311;BME280;8773;43.300;0.394;2023-08-06T11:50:46;100342.81;;;22.46;42.14
17311;BME280;8773;43.300;0.394;2023-08-06T11:53:15;100339.16;;;23.21;41.08
17311;BME280;8773;43.300;0.394;2023-08-06T11:55:43;100333.25;;;23.43;38.91
17311;BME280;8773;43.300;0.394;2023-08-06T11:58:11;100319.50;;;23.74;39.27
17311;BME280;8773;43.300;0.394;2023-08-06T12:00:38;100320.41;;;24.35;38.53
17311;BME280;8773;43.300;0.394;2023-08-06T12:03:06;100322.97;;;24.59;39.21
17311;BME280;8773;43.300;0.394;2023-08-06T12:05:34;100322.38;;;24.46;39.52
17311;BME280;8773;43.300;0.394;2023-08-06T12:08:02;100323.31;;;24.21;39.07
17311;BME280;8773;43.300;0.394;2023-08-06T12:10:32;100323.50;;;24.08;38.87
17311;BME280;8773;43.300;0.394;2023-08-06T12:13:00;100320.41;;;24.05;39.51
17311;BME280;8773;43.300;0.394;2023-08-06T12:15:28;100327.59;;;23.99;39.71
17311;BME280;8773;43.300;0.394;2023-08-06T12:17:58;100322.56;;;24.14;38.46
17311;BME280;8773;43.300;0.394;2023-08-06T12:20:26;100321.09;;;23.82;41.22
17311;BME280;8773;43.300;0.394;2023-08-06T12:22:53;100332.13;;;23.69;40.81
17311;BME280;8773;43.300;0.394;2023-08-06T12:25:20;100317.84;;;23.91;40.67
17311;BME280;8773;43.300;0.394;2023-08-06T12:27:49;100320.28;;;24.11;40.46
17311;BME280;8773;43.300;0.394;2023-08-06T12:30:17;100317.44;;;24.06;40.66
17311;BME280;8773;43.300;0.394;2023-08-06T12:32:44;100319.09;;;24.07;40.53
17311;BME280;8773;43.300;0.394;2023-08-06T12:35:12;100317.97;;;24.56;39.09
17311;BME280;8773;43.300;0.394;2023-08-06T12:37:39;100313.34;;;25.22;38.31
17311;BME280;8773;43.300;0.394;2023-08-06T12:40:07;100319.97;;;25.03;37.97
17311;BME280;8773;43.300;0.394;2023-08-06T12:42:56;100317.34;;;24.96;39.56
17311;BME280;8773;43.300;0.394;2023-08-06T12:45:23;100325.34;;;24.26;41.22
17311;BME280;8773;43.300;0.394;2023-08-06T12:47:51;100333.44;;;24.51;41.43
17311;BME280;8773;43.300;0.394;2023-08-06T12:50:18;100317.72;;;24.88;41.15
17311;BME280;8773;43.300;0.394;2023-08-06T12:52:46;100319.09;;;24.67;40.95
17311;BME280;8773;43.300;0.394;2023-08-06T12:55:13;100316.28;;;24.85;40.29
17311;BME280;8773;43.300;0.394;2023-08-06T12:57:40;100322.06;;;24.36;40.95
17311;BME280;8773;43.300;0.394;2023-08-06T13:00:12;100318.88;;;23.72;42.01
17311;BME280;8773;43.300;0.394;2023-08-06T13:02:40;100319.09;;;23.71;40.53
17311;BME280;8773;43.300;0.394;2023-08-06T13:05:07;100321.56;;;23.79;41.03